Time;durP1;ratioP1;P1;durP2;ratioP2;P2;SDS_P1;SDS_P2;PMS_P1;PMS_P2;Temp;Humidity;BMP_temperature;BMP_pressure;BME280_temperature;BME280_humidity;BME280_pressure;Samples;Min_cycle;Max_cycle;Signal;HPM_P1;HPM_P2
2023/09/19 00:01:15;;;;;;;2.50;1.10;;;18.00;99.90;;;;;;5099628;28;20059;-65
2023/09/19 00:03:41;;;;;;;2.55;0.95;;;18.20;99.90;;;;;;5099566;28;20028;-65
2023/09/19 00:06:07;;;;;;;4.00;1.60;;;18.20;99.90;;;;;;5097733;28;20036;-65
2023/09/19 00:08:33;;;;;;;3.22;0.93;;;18.20;99.90;;;;;;5099076;28;20432;-65
2023/09/19 00:11:05;;;;;;;2.90;1.00;;;18.20;99.90;;;;;;5098183;28;20024;-65
2023/09/19 00:13:35;;;;;;;3.30;1.20;;;18.10;99.90;;;;;;5100030;28;20028;-64
2023/09/19 00:16:07;;;;;;;4.63;0.93;;;18.00;99.90;;;;;;5099515;28;20024;-65
2023/09/19 00:18:34;;;;;;;2.17;0.98;;;18.10;99.90;;;;;;5100489;28;20020;-65
2023/09/19 00:21:00;;;;;;;5.53;2.13;;;18.10;99.90;;;;;;5100228;28;20024;-66
2023/09/19 00:23:25;;;;;;;3.60;1.10;;;18.00;99.90;;;;;;5099249;28;20032;-65
2023/09/19 00:25:51;;;;;;;2.50;1.20;;;18.10;99.90;;;;;;5097576;28;20071;-65
2023/09/19 00:28:19;;;;;;;2.67;1.35;;;18.00;99.90;;;;;;5098700;28;20162;-65
2023/09/19 00:30:49;;;;;;;3.53;1.00;;;18.00;99.90;;;;;;5097258;28;20061;-65
2023/09/19 00:33:16;;;;;;;2.40;1.02;;;18.00;99.90;;;;;;5097549;28;20040;-65
2023/09/19 00:35:53;;;;;;;5.32;1.60;;;18.00;99.90;;;;;;5098968;28;20030;-64
2023/09/19 00:38:21;;;;;;;;;;;18.00;99.90;;;;;;5100283;28;20415;-64
2023/09/19 00:40:53;;;;;;;4.10;1.25;;;18.00;99.90;;;;;;5100523;28;19903;-64
2023/09/19 00:43:19;;;;;;;1.70;0.90;;;18.00;99.90;;;;;;5097615;28;20371;-64
2023/09/19 00:45:48;;;;;;;;;;;18.10;99.90;;;;;;5098952;28;20082;-64
2023/09/19 00:48:15;;;;;;;2.20;1.02;;;18.20;99.90;;;;;;5098405;28;19917;-65
2023/09/19 00:50:43;;;;;;;2.50;1.20;;;18.20;99.90;;;;;;5097299;28;20039;-64
2023/09/19 00:53:13;;;;;;;2.45;0.98;;;18.10;99.90;;;;;;5096661;28;20020;-65
2023/09/19 00:55:40;;;;;;;3.60;1.00;;;18.20;99.90;;;;;;5097975;28;20020;-64
2023/09/19 00:58:06;;;;;;;4.07;1.20;;;18.10;99.90;;;;;;5098695;28;20016;-64
2023/09/19 01:00:33;;;;;;;3.03;1.20;;;18.10;99.90;;;;;;5098036;28;20466;-65
2023/09/19 01:03:01;;;;;;;1.63;1.10;;;18.10;99.90;;;;;;5098706;28;20099;-65
2023/09/19 01:05:27;;;;;;;1.55;1.00;;;18.20;99.90;;;;;;5098761;28;20016;-65
2023/09/19 01:07:53;;;;;;;2.58;0.80;;;18.20;99.90;;;;;;5097761;28;20364;-64
2023/09/19 01:10:20;;;;;;;1.85;1.00;;;18.20;99.90;;;;;;5098970;28;20490;-66
2023/09/19 01:13:23;;;;;;;2.05;0.95;;;18.40;99.90;;;;;;5099330;28;20020;-65
2023/09/19 01:16:01;;;;;;;2.90;0.75;;;18.50;99.90;;;;;;5098294;28;20023;-65
2023/09/19 01:19:17;;;;;;;2.55;1.05;;;18.60;99.90;;;;;;5097773;28;20024;-66
2023/09/19 01:22:00;;;;;;;2.58;0.98;;;18.40;99.90;;;;;;5075337;28;20050;-65
2023/09/19 01:24:53;;;;;;;2.85;0.70;;;18.60;99.90;;;;;;5098091;28;20028;-65
2023/09/19 01:27:49;;;;;;;1.83;0.60;;;18.60;99.90;;;;;;5099004;28;20016;-65
2023/09/19 01:30:22;;;;;;;2.50;0.80;;;18.60;99.90;;;;;;5099623;28;20016;-64
2023/09/19 01:32:52;;;;;;;4.63;0.80;;;18.50;99.90;;;;;;5097176;28;20016;-64
2023/09/19 01:35:18;;;;;;;2.88;1.00;;;18.60;99.90;;;;;;5097075;28;20016;-65
2023/09/19 01:37:43;;;;;;;;;;;18.60;99.90;;;;;;5097999;28;20016;-65
2023/09/19 01:40:16;;;;;;;2.53;1.00;;;18.60;99.90;;;;;;5097460;28;19912;-66
2023/09/19 01:43:05;;;;;;;2.97;0.70;;;18.60;99.90;;;;;;5097186;28;20021;-65
2023/09/19 01:46:04;;;;;;;3.10;0.85;;;18.40;99.90;;;;;;5098464;28;20028;-65
2023/09/19 01:48:42;;;;;;;1.50;0.90;;;18.40;99.90;;;;;;5098200;28;20032;-65
2023/09/19 01:51:10;;;;;;;4.13;0.95;;;18.40;99.90;;;;;;5096221;28;20103;-65
2023/09/19 01:53:52;;;;;;;1.70;1.00;;;18.30;99.90;;;;;;5096527;28;20462;-65
2023/09/19 01:56:25;;;;;;;3.47;0.95;;;18.40;99.90;;;;;;5097777;28;20063;-66
2023/09/19 01:58:56;;;;;;;1.40;0.55;;;18.40;99.90;;;;;;5098363;28;20040;-66
2023/09/19 02:01:24;;;;;;;1.52;0.63;;;18.30;99.90;;;;;;5097700;28;20107;-66
2023/09/19 02:03:50;;;;;;;1.13;0.77;;;18.20;99.90;;;;;;5097316;28;20123;-66
2023/09/19 02:06:18;;;;;;;2.13;0.80;;;18.30;99.90;;;;;;5097883;28;20075;-66
2023/09/19 02:08:47;;;;;;;2.47;0.90;;;18.40;99.90;;;;;;5097326;28;20055;-65
2023/09/19 02:11:13;;;;;;;1.60;0.75;;;18.40;99.90;;;;;;5098936;28;20031;-65
2023/09/19 02:13:40;;;;;;;2.95;1.00;;;18.50;99.90;;;;;;5098708;28;20387;-64
2023/09/19 02:16:07;;;;;;;1.70;0.80;;;18.50;99.90;;;;;;5097363;28;20078;-65
2023/09/19 02:18:34;;;;;;;1.08;0.70;;;18.40;99.90;;;;;;5097079;28;20030;-64
2023/09/19 02:21:01;;;;;;;2.28;0.70;;;18.30;99.90;;;;;;5096988;28;20042;-65
2023/09/19 02:23:26;;;;;;;2.67;0.85;;;18.30;99.90;;;;;;5097111;28;20063;-65
2023/09/19 02:25:57;;;;;;;3.60;0.88;;;18.30;99.90;;;;;;5096675;28;20024;-65
2023/09/19 02:28:23;;;;;;;1.35;0.80;;;18.40;99.90;;;;;;5097052;28;20020;-65
2023/09/19 02:30:50;;;;;;;4.32;0.90;;;18.40;99.90;;;;;;5096593;28;20039;-65
2023/09/19 02:33:16;;;;;;;3.67;0.98;;;18.40;99.90;;;;;;5097234;28;20025;-66
2023/09/19 02:35:42;;;;;;;2.38;0.90;;;18.40;99.90;;;;;;5096129;28;20073;-65
2023/09/19 02:38:11;;;;;;;2.50;1.20;;;18.40;99.90;;;;;;5096455;28;20483;-65
2023/09/19 02:40:37;;;;;;;3.47;0.90;;;18.30;99.90;;;;;;5096782;28;20020;-65
2023/09/19 02:43:03;;;;;;;2.10;0.98;;;18.30;99.90;;;;;;5097640;28;20021;-64
2023/09/19 02:45:29;;;;;;;1.80;1.00;;;18.30;99.90;;;;;;5095196;28;20032;-64
2023/09/19 02:47:55;;;;;;;2.55;0.90;;;18.30;99.90;;;;;;5094883;28;20490;-65
2023/09/19 02:50:21;;;;;;;2.13;1.10;;;18.30;99.90;;;;;;5095295;28;20099;-65
2023/09/19 02:52:51;;;;;;;2.75;0.95;;;18.20;99.90;;;;;;5096384;28;20024;-65
2023/09/19 02:55:19;;;;;;;3.63;1.00;;;18.20;99.90;;;;;;5097724;28;20016;-65
2023/09/19 02:57:52;;;;;;;2.88;0.90;;;18.20;99.90;;;;;;5097125;28;20063;-65
2023/09/19 03:00:22;;;;;;;1.95;0.80;;;18.20;99.90;;;;;;5097614;28;20016;-66
2023/09/19 03:02:53;;;;;;;3.40;1.08;;;18.10;99.90;;;;;;5096843;28;20466;-65
2023/09/19 03:05:20;;;;;;;2.90;1.10;;;18.20;99.90;;;;;;5097217;28;20025;-65
2023/09/19 03:07:50;;;;;;;1.95;0.85;;;18.10;99.90;;;;;;5097480;28;20012;-65
2023/09/19 03:10:17;;;;;;;4.63;1.33;;;18.20;99.90;;;;;;5097271;28;20016;-65
2023/09/19 03:12:43;;;;;;;3.72;1.63;;;18.20;99.90;;;;;;5096309;28;20028;-65
2023/09/19 03:15:09;;;;;;;3.65;1.52;;;18.20;99.90;;;;;;5096379;28;20020;-65
2023/09/19 03:17:35;;;;;;;2.97;1.20;;;18.30;99.90;;;;;;5099860;28;20073;-65
2023/09/19 03:20:00;;;;;;;;;;;18.20;99.90;;;;;;5101997;28;20020;-65
2023/09/19 03:22:27;;;;;;;3.63;1.33;;;18.30;99.90;;;;;;5102023;28;19988;-64
2023/09/19 03:24:53;;;;;;;2.55;1.35;;;18.40;99.90;;;;;;5100819;28;20028;-65
2023/09/19 03:27:18;;;;;;;5.18;1.35;;;18.20;99.90;;;;;;5102093;28;20031;-64
2023/09/19 03:29:44;;;;;;;3.78;1.30;;;18.30;99.90;;;;;;5101807;28;20463;-66
2023/09/19 03:32:11;;;;;;;2.40;1.05;;;18.30;99.90;;;;;;5102854;28;20660;-65
2023/09/19 03:34:42;;;;;;;4.30;1.30;;;18.20;99.90;;;;;;5100615;28;20016;-65
2023/09/19 03:37:08;;;;;;;3.15;1.45;;;18.10;99.90;;;;;;5099534;28;20020;-64
2023/09/19 03:39:34;;;;;;;5.05;1.77;;;18.10;99.90;;;;;;5099227;28;20019;-64
2023/09/19 03:42:00;;;;;;;3.47;1.38;;;18.10;99.90;;;;;;5098075;28;20127;-64
2023/09/19 03:44:25;;;;;;;;;;;18.10;99.90;;;;;;5100725;28;20054;-65
2023/09/19 03:46:51;;;;;;;2.90;0.98;;;18.10;99.90;;;;;;5100228;28;19904;-65
2023/09/19 03:49:16;;;;;;;3.95;1.17;;;18.20;99.90;;;;;;5100797;28;20032;-65
2023/09/19 03:51:42;;;;;;;3.72;1.40;;;18.10;99.90;;;;;;5098638;28;20042;-65
2023/09/19 03:54:08;;;;;;;2.13;1.20;;;18.20;99.90;;;;;;5100093;28;20023;-65
2023/09/19 03:56:33;;;;;;;5.57;1.60;;;18.10;99.90;;;;;;5100477;28;20486;-65
2023/09/19 03:58:59;;;;;;;6.80;1.63;;;18.00;99.90;;;;;;5100349;28;20470;-65
2023/09/19 04:01:25;;;;;;;2.17;1.20;;;17.90;99.90;;;;;;5099624;28;20040;-65
2023/09/19 04:03:53;;;;;;;5.03;1.52;;;17.80;99.90;;;;;;5099732;28;20069;-65
2023/09/19 04:06:19;;;;;;;4.63;1.63;;;17.80;99.90;;;;;;5099798;28;20050;-66
2023/09/19 04:08:46;;;;;;;3.50;1.75;;;17.90;99.90;;;;;;5099922;28;20028;-65
2023/09/19 04:11:11;;;;;;;2.17;1.63;;;17.90;99.90;;;;;;5099972;28;20036;-65
2023/09/19 04:13:37;;;;;;;2.17;1.08;;;18.00;99.90;;;;;;5100237;28;20024;-66
2023/09/19 04:16:10;;;;;;;2.60;1.20;;;18.10;99.90;;;;;;5099023;28;20044;-65
2023/09/19 04:18:38;;;;;;;5.90;1.83;;;18.00;99.90;;;;;;5099589;28;20026;-65
2023/09/19 04:21:05;;;;;;;3.25;1.67;;;18.10;99.90;;;;;;5099257;28;20490;-65
2023/09/19 04:23:31;;;;;;;5.47;1.48;;;18.10;99.90;;;;;;5099148;28;20047;-65
2023/09/19 04:25:57;;;;;;;3.88;1.58;;;18.20;99.90;;;;;;5099243;28;20107;-66
2023/09/19 04:28:24;;;;;;;2.65;1.45;;;18.00;99.90;;;;;;5099995;28;20035;-65
2023/09/19 04:30:49;;;;;;;3.22;1.70;;;18.00;99.90;;;;;;5100898;28;20017;-65
2023/09/19 04:33:15;;;;;;;3.38;1.30;;;18.20;99.90;;;;;;5100864;28;20503;-66
2023/09/19 04:35:42;;;;;;;6.10;1.45;;;18.00;99.90;;;;;;5100003;28;20036;-66
2023/09/19 04:38:08;;;;;;;4.65;1.90;;;18.10;99.90;;;;;;5097767;28;20020;-65
2023/09/19 04:40:34;;;;;;;4.28;1.38;;;18.30;99.90;;;;;;5097903;28;20497;-65
2023/09/19 04:43:00;;;;;;;4.57;1.70;;;18.20;99.90;;;;;;5097999;28;20024;-63
2023/09/19 04:45:26;;;;;;;;;;;18.10;99.90;;;;;;5098345;28;20421;-64
2023/09/19 04:47:52;;;;;;;3.58;1.40;;;18.10;99.90;;;;;;5097750;28;19953;-65
2023/09/19 04:50:18;;;;;;;;;;;18.10;99.90;;;;;;5097955;28;20095;-64
2023/09/19 04:52:45;;;;;;;3.08;1.30;;;18.20;99.90;;;;;;5097751;28;19955;-64
2023/09/19 04:55:16;;;;;;;5.15;1.92;;;18.20;99.90;;;;;;5097304;28;20024;-64
2023/09/19 04:57:50;;;;;;;2.13;1.63;;;18.20;99.90;;;;;;5097335;28;20024;-64
2023/09/19 05:00:18;;;;;;;3.75;1.70;;;18.10;99.90;;;;;;5097857;28;20052;-65
2023/09/19 05:02:44;;;;;;;3.47;1.60;;;18.00;99.90;;;;;;5096312;28;20020;-65
2023/09/19 05:05:14;;;;;;;4.70;1.80;;;17.80;99.90;;;;;;5097284;28;20035;-63
2023/09/19 05:07:41;;;;;;;4.07;1.73;;;17.80;99.90;;;;;;5097277;28;20028;-64
2023/09/19 05:10:07;;;;;;;2.50;1.50;;;17.70;99.90;;;;;;5097382;28;20048;-64
2023/09/19 05:12:34;;;;;;;;;;;17.80;99.90;;;;;;5097986;28;20092;-65
2023/09/19 05:15:01;;;;;;;5.25;1.92;;;17.80;99.90;;;;;;5096798;28;20428;-63
2023/09/19 05:17:27;;;;;;;5.10;1.70;;;17.80;99.90;;;;;;5097032;28;20024;-65
2023/09/19 05:19:52;;;;;;;4.22;1.50;;;17.70;99.90;;;;;;5096933;28;20027;-64
2023/09/19 05:22:18;;;;;;;3.13;1.38;;;17.70;99.90;;;;;;5097688;28;20059;-65
2023/09/19 05:24:47;;;;;;;6.32;1.65;;;17.60;99.90;;;;;;5096670;28;20020;-64
2023/09/19 05:27:15;;;;;;;2.90;1.45;;;17.50;99.90;;;;;;5096372;28;20058;-65
2023/09/19 05:29:42;;;;;;;7.03;1.90;;;17.40;99.90;;;;;;5097111;28;20157;-64
2023/09/19 05:32:08;;;;;;;3.47;1.63;;;17.40;99.90;;;;;;5095779;28;20021;-64
2023/09/19 05:34:33;;;;;;;6.13;2.03;;;17.50;99.90;;;;;;5097294;28;20138;-64
2023/09/19 05:36:59;;;;;;;4.10;1.77;;;17.60;99.90;;;;;;5094166;28;20119;-64
2023/09/19 05:39:24;;;;;;;4.18;1.60;;;17.60;99.90;;;;;;5095826;28;20055;-65
2023/09/19 05:41:50;;;;;;;4.25;1.70;;;17.60;99.90;;;;;;5096805;28;20032;-63
2023/09/19 05:44:15;;;;;;;5.78;2.10;;;17.60;99.90;;;;;;5096205;28;20032;-66
2023/09/19 05:46:41;;;;;;;4.28;1.65;;;17.60;99.90;;;;;;5095028;28;20024;-62
2023/09/19 05:49:06;;;;;;;7.90;2.10;;;17.60;99.90;;;;;;5097164;28;20073;-63
2023/09/19 05:51:32;;;;;;;3.70;1.77;;;17.70;99.90;;;;;;5095458;28;20024;-64
2023/09/19 05:53:57;;;;;;;6.40;2.22;;;17.80;99.90;;;;;;5096601;28;20032;-64
2023/09/19 05:56:23;;;;;;;3.00;1.25;;;17.80;99.90;;;;;;5097136;28;20027;-63
2023/09/19 05:58:51;;;;;;;4.85;1.80;;;17.80;99.90;;;;;;5097411;28;20044;-63
2023/09/19 06:01:17;;;;;;;4.90;1.90;;;17.80;99.90;;;;;;5096609;28;20024;-62
2023/09/19 06:03:43;;;;;;;6.18;2.05;;;17.70;99.90;;;;;;5096631;28;20020;-65
2023/09/19 06:06:09;;;;;;;8.10;2.13;;;17.70;99.90;;;;;;5096915;28;20371;-65
2023/09/19 06:08:34;;;;;;;6.18;1.75;;;17.60;99.90;;;;;;5096772;28;20391;-65
2023/09/19 06:11:00;;;;;;;6.22;1.40;;;17.60;99.90;;;;;;5096284;28;20040;-65
2023/09/19 06:13:28;;;;;;;4.50;2.05;;;17.60;99.90;;;;;;5096330;28;20062;-64
2023/09/19 06:15:56;;;;;;;4.82;1.77;;;17.50;99.90;;;;;;5097033;28;20115;-64
2023/09/19 06:18:26;;;;;;;4.30;1.65;;;17.50;99.90;;;;;;5096117;28;20016;-64
2023/09/19 06:20:51;;;;;;;6.82;1.63;;;17.40;99.90;;;;;;5097171;28;20427;-64
2023/09/19 06:23:17;;;;;;;6.20;1.60;;;17.50;99.90;;;;;;5096987;28;20043;-64
2023/09/19 06:25:43;;;;;;;4.57;1.65;;;17.50;99.90;;;;;;5097714;28;20028;-64
2023/09/19 06:28:12;;;;;;;4.78;1.75;;;17.50;99.90;;;;;;5097773;28;20031;-64
2023/09/19 06:30:41;;;;;;;6.93;2.00;;;17.50;99.90;;;;;;5095785;28;20112;-64
2023/09/19 06:33:07;;;;;;;5.40;1.48;;;17.70;99.90;;;;;;5095693;28;20475;-65
2023/09/19 06:35:33;;;;;;;4.93;1.70;;;17.70;99.90;;;;;;5096262;28;20082;-63
2023/09/19 06:38:02;;;;;;;4.50;2.05;;;17.80;99.90;;;;;;5095802;28;20039;-63
2023/09/19 06:40:28;;;;;;;7.72;2.10;;;17.90;99.90;;;;;;5095438;28;20410;-65
2023/09/19 06:42:55;;;;;;;7.88;2.10;;;17.80;99.90;;;;;;5095763;28;20027;-65
2023/09/19 06:45:21;;;;;;;6.18;1.83;;;17.70;99.90;;;;;;5096220;28;20024;-65
2023/09/19 06:47:51;;;;;;;3.85;1.55;;;17.80;99.90;;;;;;5094810;28;20021;-64
2023/09/19 06:50:22;;;;;;;6.30;1.88;;;17.90;99.90;;;;;;5096601;28;20032;-64
2023/09/19 06:52:53;;;;;;;7.80;1.73;;;17.90;99.90;;;;;;5100350;28;20028;-65
2023/09/19 06:55:20;;;;;;;4.65;1.58;;;17.80;99.90;;;;;;5098984;28;20020;-64
2023/09/19 06:57:46;;;;;;;6.20;1.52;;;17.80;99.90;;;;;;5100411;28;20035;-67
2023/09/19 07:00:21;;;;;;;6.03;1.77;;;17.90;99.90;;;;;;5100178;28;20024;-65
2023/09/19 07:02:56;;;;;;;9.40;1.65;;;17.90;99.90;;;;;;5099879;28;20028;-65
2023/09/19 07:05:22;;;;;;;5.55;1.67;;;18.00;99.90;;;;;;5099312;28;20020;-65
2023/09/19 07:07:47;;;;;;;3.88;1.30;;;18.00;99.90;;;;;;5099267;28;20515;-66
2023/09/19 07:10:14;;;;;;;4.50;1.45;;;18.00;99.90;;;;;;5100452;28;20020;-65
2023/09/19 07:12:41;;;;;;;;;;;18.10;99.90;;;;;;5100719;28;20020;-66
2023/09/19 07:15:06;;;;;;;3.72;1.52;;;18.10;99.90;;;;;;5099055;28;20392;-65
2023/09/19 07:17:33;;;;;;;4.47;1.63;;;18.10;99.90;;;;;;5098726;28;20027;-66
2023/09/19 07:19:58;;;;;;;4.32;1.70;;;18.10;99.90;;;;;;5098320;28;20051;-65
2023/09/19 07:22:26;;;;;;;8.40;1.77;;;18.10;99.90;;;;;;5097768;28;20047;-66
2023/09/19 07:24:51;;;;;;;5.57;1.55;;;18.30;99.90;;;;;;5099907;28;20156;-64
2023/09/19 07:27:17;;;;;;;5.90;1.80;;;18.40;99.90;;;;;;5100080;28;20028;-63
2023/09/19 07:29:43;;;;;;;11.35;6.07;;;18.50;99.90;;;;;;5099817;28;20043;-61
2023/09/19 07:32:10;;;;;;;7.35;2.03;;;18.50;99.90;;;;;;5099074;28;20028;-64
2023/09/19 07:34:35;;;;;;;6.45;2.60;;;18.60;99.90;;;;;;5099080;28;20039;-62
2023/09/19 07:37:02;;;;;;;6.97;2.00;;;18.80;99.90;;;;;;5099390;28;20474;-62
2023/09/19 07:39:28;;;;;;;4.07;1.77;;;18.90;99.90;;;;;;5099399;28;20027;-62
2023/09/19 07:41:54;;;;;;;3.05;1.63;;;18.90;99.90;;;;;;5099686;28;20032;-63
2023/09/19 07:44:20;;;;;;;5.18;1.60;;;19.00;99.90;;;;;;5099105;28;20085;-62
2023/09/19 07:46:45;;;;;;;;;;;19.10;99.90;;;;;;5099279;28;20023;-62
2023/09/19 07:49:11;;;;;;;7.28;1.40;;;19.30;99.90;;;;;;5098750;28;20358;-63
2023/09/19 07:51:36;;;;;;;3.03;1.58;;;19.30;99.90;;;;;;5098684;28;20024;-63
2023/09/19 07:54:02;;;;;;;8.52;1.77;;;19.30;99.90;;;;;;5098454;28;20028;-63
2023/09/19 07:56:28;;;;;;;4.40;1.77;;;19.40;99.90;;;;;;5098945;28;20020;-62
2023/09/19 07:58:53;;;;;;;6.18;1.77;;;19.50;99.90;;;;;;5098649;28;20071;-63
2023/09/19 08:01:19;;;;;;;4.55;1.75;;;19.30;99.90;;;;;;5097380;28;20028;-63
2023/09/19 08:03:45;;;;;;;4.57;2.13;;;19.30;99.90;;;;;;5097841;28;20032;-63
2023/09/19 08:06:10;;;;;;;6.32;1.98;;;19.30;99.90;;;;;;5098710;28;20024;-63
2023/09/19 08:08:39;;;;;;;3.08;1.33;;;19.40;99.90;;;;;;5098045;28;20028;-63
2023/09/19 08:11:12;;;;;;;4.50;1.70;;;19.40;99.90;;;;;;5098339;28;20034;-63
2023/09/19 08:13:43;;;;;;;5.32;1.83;;;19.50;99.90;;;;;;5098805;28;20020;-63
2023/09/19 08:16:14;;;;;;;4.70;1.40;;;19.60;99.90;;;;;;5096685;28;20020;-63
2023/09/19 08:18:41;;;;;;;5.13;1.45;;;19.80;99.90;;;;;;5098103;28;20024;-62
2023/09/19 08:21:10;;;;;;;;;;;19.80;99.90;;;;;;5096591;28;20020;-63
2023/09/19 08:23:38;;;;;;;5.03;1.33;;;19.90;99.90;;;;;;5097357;28;19934;-63
2023/09/19 08:26:07;;;;;;;7.72;1.40;;;19.90;99.90;;;;;;5097711;28;20077;-61
2023/09/19 08:28:36;;;;;;;6.47;1.70;;;20.00;99.90;;;;;;5097766;28;20027;-62
2023/09/19 08:31:05;;;;;;;3.90;1.67;;;20.10;99.90;;;;;;5097446;28;20032;-61
2023/09/19 08:33:35;;;;;;;4.85;1.65;;;20.30;99.90;;;;;;5097474;28;20035;-62
2023/09/19 08:36:04;;;;;;;4.38;1.40;;;20.40;99.90;;;;;;5097624;28;20031;-63
2023/09/19 08:38:32;;;;;;;4.45;1.20;;;20.80;99.90;;;;;;5097894;28;20105;-62
2023/09/19 08:41:05;;;;;;;3.20;1.30;;;21.40;99.90;;;;;;5098032;28;20528;-63
2023/09/19 08:43:33;;;;;;;5.13;1.40;;;22.20;99.90;;;;;;5097184;28;20089;-62
2023/09/19 08:46:11;;;;;;;5.35;1.55;;;22.10;99.90;;;;;;5097893;28;20024;-62
2023/09/19 08:48:42;;;;;;;3.95;1.27;;;21.70;99.90;;;;;;5097803;28;20028;-61
2023/09/19 08:51:38;;;;;;;3.72;1.10;;;21.30;99.90;;;;;;5097037;28;20035;-62
2023/09/19 08:54:07;;;;;;;3.90;1.20;;;21.10;99.90;;;;;;5095562;28;20038;-63
2023/09/19 08:56:33;;;;;;;3.45;1.33;;;20.80;99.90;;;;;;5097699;28;20059;-63
2023/09/19 08:59:03;;;;;;;;;;;21.30;99.90;;;;;;5096375;28;20095;-64
2023/09/19 09:01:32;;;;;;;2.13;0.80;;;22.10;99.90;;;;;;5094650;28;19904;-64
2023/09/19 09:03:58;;;;;;;2.42;1.00;;;23.50;99.90;;;;;;5095226;28;20103;-64
2023/09/19 09:06:24;;;;;;;4.78;1.05;;;24.30;98.10;;;;;;5094788;28;20091;-64
2023/09/19 09:08:52;;;;;;;2.50;1.08;;;25.50;95.90;;;;;;5094383;28;20124;-64
2023/09/19 09:11:18;;;;;;;4.30;1.27;;;27.10;93.60;;;;;;5094340;28;20016;-64
2023/09/19 09:13:45;;;;;;;6.05;1.42;;;28.00;92.00;;;;;;5093186;28;20032;-64
2023/09/19 09:16:11;;;;;;;2.50;1.20;;;28.70;90.50;;;;;;5094518;28;20024;-64
2023/09/19 09:18:37;;;;;;;4.10;1.10;;;29.10;89.10;;;;;;5094602;28;20028;-64
2023/09/19 09:21:04;;;;;;;2.60;1.13;;;29.60;87.50;;;;;;5094798;28;20020;-64
2023/09/19 09:23:31;;;;;;;5.53;1.33;;;29.80;85.50;;;;;;5094472;28;20082;-63
2023/09/19 09:26:02;;;;;;;2.30;1.20;;;30.30;83.70;;;;;;5094565;28;20048;-65
2023/09/19 09:28:30;;;;;;;4.03;1.20;;;29.50;84.30;;;;;;5093658;28;20068;-63
2023/09/19 09:30:58;;;;;;;4.50;1.48;;;29.70;83.00;;;;;;5095049;28;20016;-65
2023/09/19 09:33:23;;;;;;;3.63;1.15;;;30.50;82.20;;;;;;5094023;28;20103;-69
2023/09/19 09:35:58;;;;;;;2.67;1.08;;;30.80;81.20;;;;;;5094269;28;20363;-65
2023/09/19 09:38:27;;;;;;;2.00;1.17;;;29.80;81.30;;;;;;5094329;28;20028;-64
2023/09/19 09:41:28;;;;;;;3.75;1.20;;;29.10;82.70;;;;;;5093093;28;20031;-64
2023/09/19 09:43:46;;;;;;;6.00;1.10;;;29.20;82.40;;;;;;5091357;28;20089;-65
2023/09/19 09:49:19;;;;;;;3.88;0.93;;;30.00;81.90;;;;;;5093651;28;20020;-65
2023/09/19 09:52:01;;;;;;;3.10;1.17;;;30.50;80.30;;;;;;5093551;28;20020;-65
2023/09/19 09:54:34;;;;;;;2.40;1.15;;;30.10;80.70;;;;;;5094319;28;20339;-66
2023/09/19 09:57:06;;;;;;;2.40;1.08;;;30.00;80.40;;;;;;5093570;28;20177;-65
2023/09/19 09:59:50;;;;;;;3.55;1.25;;;29.10;81.40;;;;;;5093808;28;20153;-65
2023/09/19 10:02:28;;;;;;;3.22;1.50;;;28.90;82.60;;;;;;5093260;28;20146;-64
2023/09/19 10:05:01;;;;;;;5.15;1.60;;;29.70;81.50;;;;;;5093639;28;20050;-66
2023/09/19 10:08:08;;;;;;;3.47;1.10;;;31.30;79.50;;;;;;5093587;28;20065;-65
2023/09/19 10:11:02;;;;;;;5.70;1.13;;;32.50;77.60;;;;;;5091216;28;20074;-66
2023/09/19 10:13:25;;;;;;;6.07;1.10;;;33.40;76.10;;;;;;5092888;28;20487;-66
2023/09/19 10:15:53;;;;;;;2.95;1.15;;;32.60;75.10;;;;;;5093152;28;20190;-65
2023/09/19 10:18:24;;;;;;;3.10;1.35;;;31.40;75.60;;;;;;5093782;28;20020;-65
2023/09/19 10:20:51;;;;;;;3.33;1.08;;;30.10;78.10;;;;;;5093640;28;20047;-65
2023/09/19 10:23:23;;;;;;;2.70;1.55;;;30.10;77.80;;;;;;5093665;28;20047;-64
2023/09/19 10:25:49;;;;;;;2.80;1.30;;;28.70;78.90;;;;;;5093675;28;20028;-64
2023/09/19 10:28:21;;;;;;;4.82;1.60;;;27.30;81.80;;;;;;5093385;28;20019;-70
2023/09/19 10:30:49;;;;;;;4.05;1.52;;;27.90;81.90;;;;;;5093590;28;20070;-65
2023/09/19 10:33:17;;;;;;;1.85;1.00;;;27.10;82.70;;;;;;5093680;28;20017;-65
2023/09/19 10:35:44;;;;;;;3.65;1.27;;;28.10;82.00;;;;;;5093147;28;20035;-65
2023/09/19 10:38:11;;;;;;;3.25;1.10;;;29.10;80.20;;;;;;5093226;28;20381;-65
2023/09/19 10:40:42;;;;;;;4.00;1.35;;;29.20;80.30;;;;;;5091634;28;20020;-65
2023/09/19 10:43:18;;;;;;;3.53;1.17;;;30.00;79.10;;;;;;5093370;28;20016;-65
2023/09/19 10:45:46;;;;;;;2.38;1.40;;;30.40;77.40;;;;;;5093526;28;20048;-64
2023/09/19 10:48:12;;;;;;;3.55;1.70;;;29.80;77.80;;;;;;5093111;28;20024;-64
2023/09/19 10:51:04;;;;;;;3.42;1.50;;;28.60;79.60;;;;;;5094124;28;20034;-65
2023/09/19 10:53:43;;;;;;;3.05;1.27;;;27.20;81.90;;;;;;5093279;28;20051;-65
2023/09/19 10:56:17;;;;;;;2.92;1.20;;;26.10;85.10;;;;;;5093664;28;20024;-65
2023/09/19 10:58:44;;;;;;;7.00;2.08;;;27.00;84.20;;;;;;5093051;28;20020;-65
2023/09/19 11:01:18;;;;;;;4.25;1.77;;;26.90;83.20;;;;;;5092987;28;20024;-64
2023/09/19 11:03:44;;;;;;;4.03;1.90;;;26.30;84.70;;;;;;5093186;28;20024;-65
2023/09/19 11:06:22;;;;;;;6.22;2.03;;;25.60;86.50;;;;;;5093341;28;20074;-65
2023/09/19 11:08:56;;;;;;;5.50;1.52;;;25.10;87.30;;;;;;5093147;28;20490;-65
2023/09/19 11:11:40;;;;;;;6.47;1.40;;;24.80;88.80;;;;;;5093036;28;20422;-65
2023/09/19 11:14:25;;;;;;;4.45;1.27;;;24.40;89.40;;;;;;5092917;28;20017;-65
2023/09/19 11:17:11;;;;;;;3.33;1.58;;;24.20;89.70;;;;;;5091768;28;20073;-63
2023/09/19 11:22:50;;;;;;;6.63;1.40;;;23.20;90.90;;;;;;5093142;28;20119;-64
2023/09/19 11:25:30;;;;;;;5.03;1.73;;;23.30;91.50;;;;;;5092600;28;20536;-64
2023/09/19 11:28:18;;;;;;;2.25;0.90;;;23.40;91.30;;;;;;5092915;28;20105;-64
2023/09/19 11:30:46;;;;;;;5.85;1.33;;;23.60;90.60;;;;;;5092636;28;20164;-64
2023/09/19 11:33:28;;;;;;;3.13;1.30;;;23.70;90.60;;;;;;5092449;28;20077;-64
2023/09/19 11:36:19;;;;;;;2.90;1.58;;;23.80;90.40;;;;;;5092872;28;20076;-64
2023/09/19 11:38:45;;;;;;;2.88;1.48;;;23.80;90.50;;;;;;5095073;28;20033;-64
2023/09/19 11:41:26;;;;;;;3.45;1.50;;;23.80;90.70;;;;;;5096536;28;20035;-65
2023/09/19 11:44:03;;;;;;;3.58;1.20;;;23.90;90.30;;;;;;5096663;28;20115;-65
2023/09/19 11:46:31;;;;;;;6.00;1.27;;;24.00;90.30;;;;;;5096825;28;20024;-64
2023/09/19 11:49:29;;;;;;;4.22;1.30;;;24.20;90.50;;;;;;5095115;28;20028;-65
2023/09/19 11:51:55;;;;;;;4.70;1.30;;;24.00;90.20;;;;;;5096385;28;20169;-65
2023/09/19 11:54:28;;;;;;;4.03;1.10;;;23.80;90.30;;;;;;5096758;28;20028;-65
2023/09/19 11:56:55;;;;;;;4.15;1.30;;;23.80;90.10;;;;;;5096715;28;20539;-64
2023/09/19 11:59:22;;;;;;;5.85;1.33;;;23.70;90.20;;;;;;5095698;28;20020;-65
2023/09/19 12:01:57;;;;;;;4.13;1.25;;;23.60;90.40;;;;;;5096430;28;20028;-65
2023/09/19 12:04:45;;;;;;;3.38;1.52;;;23.50;90.50;;;;;;5097893;28;20054;-65
2023/09/19 12:07:15;;;;;;;2.47;1.23;;;23.40;90.80;;;;;;5095845;28;20085;-65
2023/09/19 12:09:47;;;;;;;3.97;1.20;;;23.30;90.50;;;;;;5096345;28;20020;-64
2023/09/19 12:12:33;;;;;;;5.82;1.05;;;23.30;90.40;;;;;;5095724;28;20020;-65
2023/09/19 12:14:59;;;;;;;4.82;1.42;;;23.30;90.50;;;;;;5096035;28;20103;-65
2023/09/19 12:17:39;;;;;;;3.63;1.10;;;23.30;90.30;;;;;;5095468;28;20229;-65
2023/09/19 12:20:12;;;;;;;4.50;1.77;;;23.20;90.50;;;;;;5095916;28;20044;-65
2023/09/19 12:22:43;;;;;;;6.60;1.50;;;23.30;90.40;;;;;;5095862;28;20028;-64
2023/09/19 12:25:13;;;;;;;2.05;1.17;;;23.40;90.40;;;;;;5095606;28;20020;-66
2023/09/19 12:27:52;;;;;;;4.63;1.17;;;23.50;90.80;;;;;;5095861;28;20016;-63
2023/09/19 12:30:20;;;;;;;4.28;1.50;;;23.70;90.30;;;;;;5095753;28;20494;-64
2023/09/19 12:32:48;;;;;;;2.35;1.15;;;23.80;89.70;;;;;;5095598;28;20020;-64
2023/09/19 12:35:47;;;;;;;3.42;1.02;;;23.90;89.80;;;;;;5094252;28;20032;-64
2023/09/19 12:38:35;;;;;;;3.80;1.23;;;24.00;90.00;;;;;;5053153;28;20099;-65
2023/09/19 12:41:01;;;;;;;2.40;1.25;;;24.10;89.70;;;;;;5053133;28;20091;-64
2023/09/19 12:43:32;;;;;;;4.45;1.20;;;24.30;90.00;;;;;;5052870;28;20029;-65
2023/09/19 12:45:59;;;;;;;3.22;1.60;;;24.30;89.50;;;;;;5053522;28;20025;-65
2023/09/19 12:48:29;;;;;;;2.92;1.13;;;24.20;88.90;;;;;;5053019;28;20041;-64
2023/09/19 12:51:06;;;;;;;2.22;1.17;;;24.20;89.50;;;;;;5036425;28;20025;-63
2023/09/19 12:53:46;;;;;;;3.38;1.10;;;24.10;89.10;;;;;;5052962;28;20021;-63
2023/09/19 12:56:16;;;;;;;3.03;1.20;;;24.20;89.20;;;;;;5053217;28;20472;-64
2023/09/19 12:58:56;;;;;;;1.67;0.90;;;24.20;89.50;;;;;;5053315;28;20033;-65
2023/09/19 13:01:26;;;;;;;3.22;1.17;;;24.30;88.40;;;;;;5052652;28;20048;-64
2023/09/19 13:04:25;;;;;;;4.18;1.25;;;24.10;88.10;;;;;;5052848;28;20048;-65
2023/09/19 13:06:52;;;;;;;2.72;1.10;;;24.10;88.10;;;;;;5035839;28;20036;-64
2023/09/19 13:09:20;;;;;;;4.10;1.30;;;24.10;88.40;;;;;;5035790;28;20025;-64
2023/09/19 13:11:47;;;;;;;3.10;1.23;;;24.00;88.40;;;;;;5052535;28;20040;-65